createdAt,value
2017-07-08T00:00:19.299Z,11.23
2017-07-08T00:02:47.067Z,11.40
2017-07-08T00:05:14.829Z,10.03
2017-07-08T00:07:42.694Z,8.10
2017-07-08T00:10:10.373Z,8.93
2017-07-08T00:12:38.222Z,8.60
2017-07-08T00:15:05.989Z,7.73
2017-07-08T00:17:33.751Z,9.93
2017-07-08T00:20:01.517Z,7.97
2017-07-08T00:22:29.177Z,8.70
2017-07-08T00:24:56.968Z,11.00
2017-07-08T00:27:24.705Z,9.27
2017-07-08T00:29:52.335Z,10.37
2017-07-08T00:32:20.047Z,10.73
2017-07-08T00:34:47.821Z,9.17
2017-07-08T00:37:15.586Z,10.57
2017-07-08T00:39:44.040Z,9.10
2017-07-08T00:42:11.719Z,11.73
2017-07-08T00:44:39.566Z,11.80
2017-07-08T00:47:07.331Z,12.00
2017-07-08T00:49:35.208Z,11.70
2017-07-08T00:52:02.961Z,11.37
2017-07-08T00:54:30.602Z,8.07
2017-07-08T00:56:58.264Z,7.20
2017-07-08T00:59:25.979Z,10.63
2017-07-08T01:01:53.813Z,11.43
2017-07-08T01:04:21.513Z,11.20
2017-07-08T01:06:49.976Z,9.43
2017-07-08T01:09:17.823Z,11.00
2017-07-08T01:11:45.509Z,13.80
2017-07-08T01:14:13.352Z,8.43
2017-07-08T01:16:41.117Z,9.70
2017-07-08T01:19:08.881Z,14.70
2017-07-08T01:21:36.747Z,16.63
2017-07-08T01:24:04.509Z,9.87
2017-07-08T01:26:32.377Z,10.30
2017-07-08T01:29:00.065Z,13.50
2017-07-08T01:31:27.802Z,11.37
2017-07-08T01:33:55.673Z,12.23
2017-07-08T01:36:23.433Z,12.00
2017-07-08T01:38:51.115Z,19.57
2017-07-08T01:41:18.861Z,16.20
2017-07-08T01:43:46.626Z,17.00
2017-07-08T01:46:14.389Z,30.43
2017-07-08T01:48:42.257Z,18.03
2017-07-08T01:51:10.020Z,14.10
2017-07-08T01:53:37.785Z,13.33
2017-07-08T01:56:05.653Z,18.77
2017-07-08T01:58:33.416Z,17.00
2017-07-08T02:01:01.113Z,15.80
2017-07-08T02:03:29.533Z,18.27
2017-07-08T02:05:57.328Z,14.40
2017-07-08T02:08:25.085Z,14.10
2017-07-08T02:10:52.853Z,14.83
2017-07-08T02:13:20.719Z,12.57
2017-07-08T02:15:48.508Z,16.23
2017-07-08T02:18:16.350Z,14.73
2017-07-08T02:20:44.114Z,21.53
2017-07-08T02:23:11.895Z,19.20
2017-07-08T02:25:39.644Z,23.53
2017-07-08T02:28:07.407Z,14.63
2017-07-08T02:30:35.275Z,19.63
2017-07-08T02:33:03.039Z,15.10
2017-07-08T02:35:30.804Z,17.87
2017-07-08T02:37:58.601Z,23.47
2017-07-08T02:40:27.150Z,28.73
2017-07-08T02:42:54.913Z,29.17
2017-07-08T02:45:22.779Z,25.67
2017-07-08T02:47:50.459Z,30.47
2017-07-08T02:50:18.233Z,31.37
2017-07-08T02:52:46.073Z,27.57
2017-07-08T02:55:13.841Z,28.20
2017-07-08T02:57:41.703Z,29.30
2017-07-08T03:00:09.339Z,31.63
2017-07-08T03:02:37.130Z,28.43
2017-07-08T03:05:04.898Z,33.87
2017-07-08T03:07:32.531Z,23.50
2017-07-08T03:10:00.189Z,22.30
2017-07-08T03:12:27.985Z,34.93
2017-07-08T03:14:55.646Z,21.43
2017-07-08T03:17:23.410Z,29.90
2017-07-08T03:19:51.277Z,33.47
2017-07-08T03:22:19.040Z,27.80
2017-07-08T03:24:46.801Z,21.10
2017-07-08T03:27:14.669Z,29.73
2017-07-08T03:29:42.434Z,38.13
2017-07-08T03:32:10.198Z,37.20
2017-07-08T03:34:37.868Z,25.63
2017-07-08T03:37:05.625Z,26.53
2017-07-08T03:39:33.389Z,30.03
2017-07-08T03:42:01.152Z,27.40
2017-07-08T03:44:28.842Z,53.80
2017-07-08T03:46:56.681Z,28.67
2017-07-08T03:49:24.445Z,43.43
2017-07-08T03:51:52.136Z,30.63
2017-07-08T03:54:19.973Z,27.80
2017-07-08T03:56:47.842Z,25.50
2017-07-08T03:59:15.607Z,35.83
2017-07-08T04:01:43.374Z,35.73
2017-07-08T04:04:11.047Z,29.40
2017-07-08T04:06:38.797Z,23.13
2017-07-08T04:09:06.455Z,24.80
2017-07-08T04:11:34.140Z,27.43
2017-07-08T04:14:01.885Z,28.27
2017-07-08T04:16:29.563Z,22.60
2017-07-08T04:18:57.417Z,24.20
2017-07-08T04:21:25.175Z,27.73
2017-07-08T04:23:52.939Z,19.43
2017-07-08T04:26:20.809Z,19.43
2017-07-08T04:28:48.493Z,22.60
2017-07-08T04:31:16.336Z,20.27
2017-07-08T04:33:44.010Z,22.63
2017-07-08T04:36:11.763Z,13.33
2017-07-08T04:38:39.455Z,15.53
2017-07-08T04:41:07.291Z,16.37
2017-07-08T04:43:35.056Z,24.17
2017-07-08T04:46:02.820Z,21.50
2017-07-08T04:48:30.581Z,22.53
2017-07-08T04:50:58.285Z,20.60
2017-07-08T04:53:26.749Z,16.23
2017-07-08T04:55:54.594Z,23.20
2017-07-08T04:58:22.356Z,24.93
2017-07-08T05:00:50.121Z,20.10
2017-07-08T05:03:17.888Z,19.60
2017-07-08T05:05:45.648Z,19.43
2017-07-08T05:08:13.414Z,22.70
2017-07-08T05:10:41.285Z,26.67
2017-07-08T05:13:08.970Z,25.50
2017-07-08T05:15:36.705Z,23.23
2017-07-08T05:18:04.375Z,13.70
2017-07-08T05:20:32.132Z,22.07
2017-07-08T05:22:59.762Z,22.77
2017-07-08T05:25:27.564Z,14.17
2017-07-08T05:27:55.249Z,30.07
2017-07-08T05:30:22.895Z,26.30
2017-07-08T05:32:50.750Z,16.37
2017-07-08T05:35:18.514Z,23.67
2017-07-08T05:37:46.146Z,22.00
2017-07-08T05:40:13.941Z,29.47
2017-07-08T05:42:41.701Z,15.50
2017-07-08T05:45:09.464Z,32.33
2017-07-08T05:47:37.256Z,23.40
2017-07-08T05:50:04.998Z,22.50
2017-07-08T05:52:32.759Z,20.00
2017-07-08T05:55:00.529Z,22.47
2017-07-08T05:57:28.288Z,33.80
2017-07-08T05:59:56.053Z,24.60
2017-07-08T06:02:23.918Z,27.77
2017-07-08T06:04:51.684Z,23.37
2017-07-08T06:07:19.448Z,23.67
2017-07-08T06:09:47.317Z,27.70
2017-07-08T06:12:14.998Z,25.40
2017-07-08T06:14:42.655Z,28.87
2017-07-08T06:17:10.504Z,38.30
2017-07-08T06:19:38.187Z,28.83
2017-07-08T06:22:05.824Z,25.73
2017-07-08T06:24:33.694Z,27.10
2017-07-08T06:27:01.374Z,32.50
2017-07-08T06:29:29.004Z,28.80
2017-07-08T06:31:56.707Z,32.80
2017-07-08T06:34:24.369Z,37.20
2017-07-08T06:36:52.110Z,37.00
2017-07-08T06:39:19.974Z,41.80
2017-07-08T06:41:47.739Z,27.53
2017-07-08T06:44:15.396Z,28.40
2017-07-08T06:46:43.164Z,38.10
2017-07-08T06:49:10.927Z,34.73
2017-07-08T06:51:38.694Z,33.37
2017-07-08T06:54:06.484Z,45.70
2017-07-08T06:56:34.221Z,43.37
2017-07-08T06:59:01.984Z,28.77
2017-07-08T07:01:29.750Z,26.10
2017-07-08T07:03:57.436Z,27.87
2017-07-08T07:06:25.067Z,29.87
2017-07-08T07:08:52.940Z,25.97
2017-07-08T07:11:20.703Z,22.73
2017-07-08T07:13:48.389Z,28.17
2017-07-08T07:16:16.156Z,26.30
2017-07-08T07:18:43.894Z,28.80
2017-07-08T07:21:11.656Z,26.33
2017-07-08T07:23:39.449Z,22.90
2017-07-08T07:26:07.188Z,23.17
2017-07-08T07:28:34.949Z,18.57
2017-07-08T07:31:02.715Z,19.13
2017-07-08T07:33:30.350Z,17.07
2017-07-08T07:35:58.069Z,20.27
2017-07-08T07:38:25.733Z,14.10
2017-07-08T07:40:53.566Z,20.90
2017-07-08T07:43:21.331Z,17.87
2017-07-08T07:45:48.998Z,22.17
2017-07-08T07:48:16.758Z,10.47
2017-07-08T07:50:44.523Z,14.03
2017-07-08T07:53:12.286Z,12.10
2017-07-08T07:55:39.943Z,13.80
2017-07-08T07:58:07.626Z,13.37
2017-07-08T08:00:35.397Z,15.20
2017-07-08T08:03:03.137Z,14.80
2017-07-08T08:05:30.771Z,10.90
2017-07-08T08:07:58.439Z,17.63
2017-07-08T08:10:26.226Z,14.23
2017-07-08T08:12:53.989Z,12.23
2017-07-08T08:15:22.062Z,12.43
2017-07-08T08:17:49.748Z,15.93
2017-07-08T08:20:17.486Z,18.50
2017-07-08T08:22:45.166Z,12.40
2017-07-08T08:25:12.913Z,14.10
2017-07-08T08:27:40.600Z,18.10
2017-07-08T08:30:08.441Z,14.90
2017-07-08T08:32:36.207Z,11.20
2017-07-08T08:35:03.969Z,11.17
2017-07-08T08:37:31.737Z,9.90
2017-07-08T08:39:59.597Z,8.40
2017-07-08T08:42:28.304Z,12.67
2017-07-08T08:44:56.166Z,13.47
2017-07-08T08:47:24.023Z,7.70
2017-07-08T08:49:51.788Z,7.83
2017-07-08T08:52:19.550Z,7.70
2017-07-08T08:54:47.313Z,8.40
2017-07-08T08:57:14.947Z,8.20
2017-07-08T08:59:42.744Z,6.20
2017-07-08T09:02:10.428Z,6.80
2017-07-08T09:04:38.163Z,8.23
2017-07-08T09:07:05.930Z,5.67
2017-07-08T09:09:33.606Z,7.03
2017-07-08T09:12:01.374Z,7.23
2017-07-08T09:14:29.014Z,9.90
2017-07-08T09:16:56.781Z,9.03
2017-07-08T09:19:24.547Z,7.53
2017-07-08T09:21:52.309Z,5.40
2017-07-08T09:24:19.995Z,5.07
2017-07-08T09:26:47.741Z,7.77
2017-07-08T09:29:16.046Z,6.97
2017-07-08T09:31:44.723Z,10.20
2017-07-08T09:34:12.583Z,6.47
2017-07-08T09:36:40.551Z,5.87
2017-07-08T09:39:08.421Z,5.77
2017-07-08T09:41:36.255Z,5.57
2017-07-08T09:44:04.150Z,8.27
2017-07-08T09:46:32.118Z,5.00
2017-07-08T09:48:59.982Z,8.20
2017-07-08T09:51:27.851Z,5.63
2017-07-08T09:53:55.724Z,4.23
2017-07-08T09:56:23.694Z,5.70
2017-07-08T09:58:51.559Z,4.10
2017-07-08T10:01:19.520Z,5.47
2017-07-08T10:03:47.391Z,4.33
2017-07-08T10:06:15.360Z,3.87
2017-07-08T10:08:43.230Z,4.60
2017-07-08T10:11:11.100Z,4.57
2017-07-08T10:13:39.062Z,4.57
2017-07-08T10:16:06.811Z,3.50
2017-07-08T10:18:34.702Z,4.43
2017-07-08T10:21:02.467Z,3.90
2017-07-08T10:23:30.307Z,4.70
2017-07-08T10:25:58.074Z,4.00
2017-07-08T10:28:25.756Z,4.73
2017-07-08T10:30:53.531Z,4.43
2017-07-08T10:33:21.953Z,3.90
2017-07-08T10:35:49.743Z,3.87
2017-07-08T10:38:17.428Z,4.30
2017-07-08T10:40:45.270Z,3.97
2017-07-08T10:43:13.038Z,4.57
2017-07-08T10:45:40.700Z,3.30
2017-07-08T10:48:08.379Z,3.80
2017-07-08T10:50:36.224Z,3.30
2017-07-08T10:53:03.990Z,3.83
2017-07-08T10:55:31.757Z,3.30
2017-07-08T10:57:59.391Z,4.97
2017-07-08T11:00:27.023Z,3.43
2017-07-08T11:02:54.843Z,3.23
2017-07-08T11:05:22.609Z,3.03
2017-07-08T11:07:50.244Z,2.67
2017-07-08T11:10:18.033Z,5.00
2017-07-08T11:12:45.860Z,3.73
2017-07-08T11:15:13.665Z,2.90
2017-07-08T11:17:41.434Z,3.00
2017-07-08T11:20:09.192Z,3.33
2017-07-08T11:22:36.956Z,3.07
2017-07-08T11:25:04.722Z,6.10
2017-07-08T11:27:32.400Z,4.20
2017-07-08T11:30:00.069Z,3.60
2017-07-08T11:32:27.728Z,3.30
2017-07-08T11:34:55.368Z,4.07
2017-07-08T11:37:23.132Z,4.27
2017-07-08T11:39:50.897Z,3.50
2017-07-08T11:42:18.664Z,3.80
2017-07-08T11:44:46.425Z,4.50
2017-07-08T11:47:14.191Z,4.50
2017-07-08T11:49:41.955Z,4.10
2017-07-08T11:52:09.623Z,3.40
2017-07-08T11:54:37.382Z,4.27
2017-07-08T11:57:05.059Z,4.20
2017-07-08T11:59:32.723Z,4.00
2017-07-08T12:02:00.470Z,4.50
2017-07-08T12:04:28.234Z,5.03
2017-07-08T12:06:55.998Z,5.00
2017-07-08T12:09:23.764Z,5.87
2017-07-08T12:11:51.449Z,5.93
2017-07-08T12:14:19.188Z,7.43
2017-07-08T12:16:47.058Z,5.23
2017-07-08T12:19:14.819Z,7.27
2017-07-08T12:21:42.583Z,5.90
2017-07-08T12:24:10.348Z,4.77
2017-07-08T12:26:38.114Z,5.23
2017-07-08T12:29:05.877Z,7.10
2017-07-08T12:31:33.647Z,5.80
2017-07-08T12:34:01.507Z,5.47
2017-07-08T12:36:29.149Z,7.67
2017-07-08T12:38:56.852Z,5.50
2017-07-08T12:41:24.698Z,5.30
2017-07-08T12:43:52.380Z,6.33
2017-07-08T12:46:20.229Z,8.30
2017-07-08T12:48:47.993Z,6.60
2017-07-08T12:51:15.755Z,6.40
2017-07-08T12:53:43.435Z,4.83
2017-07-08T12:56:11.205Z,5.27
2017-07-08T12:58:39.050Z,4.40
2017-07-08T13:01:06.819Z,6.27
2017-07-08T13:03:34.679Z,5.67
2017-07-08T13:06:02.444Z,4.80
2017-07-08T13:08:30.130Z,5.20
2017-07-08T13:10:57.914Z,5.93
2017-07-08T13:13:26.455Z,4.30
2017-07-08T13:15:54.216Z,3.87
2017-07-08T13:18:21.982Z,3.33
2017-07-08T13:20:49.745Z,4.00
2017-07-08T13:23:17.423Z,5.07
2017-07-08T13:25:45.170Z,4.83
2017-07-08T13:28:12.941Z,3.70
2017-07-08T13:30:40.615Z,4.37
2017-07-08T13:33:09.283Z,6.70
2017-07-08T13:35:36.968Z,8.63
2017-07-08T13:38:04.903Z,5.60
2017-07-08T13:40:32.798Z,4.23
2017-07-08T13:43:00.554Z,4.97
2017-07-08T13:45:28.312Z,4.17
2017-07-08T13:47:56.094Z,6.07
2017-07-08T13:50:23.961Z,4.57
2017-07-08T13:52:51.829Z,4.43
2017-07-08T13:55:19.617Z,8.23
2017-07-08T13:57:47.552Z,5.73
2017-07-08T14:00:15.265Z,4.17
2017-07-08T14:02:43.069Z,5.60
2017-07-08T14:05:10.871Z,6.30
2017-07-08T14:07:39.519Z,3.37
2017-07-08T14:10:07.400Z,4.40
2017-07-08T14:12:35.272Z,4.10
2017-07-08T14:15:03.135Z,4.30
2017-07-08T14:17:31.003Z,7.53
2017-07-08T14:19:58.755Z,3.60
2017-07-08T14:22:26.514Z,3.53
2017-07-08T14:24:54.287Z,6.13
2017-07-08T14:27:22.158Z,4.97
2017-07-08T14:29:50.021Z,5.57
2017-07-08T14:32:17.893Z,5.03
2017-07-08T14:34:45.766Z,3.80
2017-07-08T14:37:13.530Z,5.50
2017-07-08T14:39:41.394Z,5.20
2017-07-08T14:42:09.267Z,4.57
2017-07-08T14:44:37.109Z,5.20
2017-07-08T14:47:04.980Z,5.50
2017-07-08T14:49:32.844Z,4.07
2017-07-08T14:52:00.605Z,6.23
2017-07-08T14:54:28.369Z,3.97
2017-07-08T14:56:56.439Z,4.93
2017-07-08T14:59:24.217Z,4.37
2017-07-08T15:01:52.095Z,5.97
2017-07-08T15:04:19.949Z,6.90
2017-07-08T15:06:47.722Z,7.23
2017-07-08T15:09:15.584Z,4.43
2017-07-08T15:11:43.367Z,3.73
2017-07-08T15:14:11.814Z,4.13
2017-07-08T15:16:39.681Z,3.93
2017-07-08T15:19:07.567Z,3.90
2017-07-08T15:21:35.369Z,6.03
2017-07-08T15:24:03.190Z,4.57
2017-07-08T15:26:31.065Z,4.43
2017-07-08T15:28:58.790Z,4.10
2017-07-08T15:31:26.527Z,4.30
2017-07-08T15:33:54.358Z,4.37
2017-07-08T15:36:22.103Z,4.53
2017-07-08T15:38:49.984Z,3.80
2017-07-08T15:41:17.770Z,4.30
2017-07-08T15:43:46.315Z,3.53
2017-07-08T15:46:14.087Z,3.60
2017-07-08T15:48:41.947Z,3.70
2017-07-08T15:51:09.644Z,3.70
2017-07-08T15:53:38.111Z,3.80
2017-07-08T15:56:05.915Z,3.60
2017-07-08T15:58:33.720Z,2.80
2017-07-08T16:01:01.485Z,4.30
2017-07-08T16:03:29.253Z,4.67
2017-07-08T16:05:57.137Z,3.70
2017-07-08T16:08:25.002Z,5.00
2017-07-08T16:10:52.867Z,4.33
2017-07-08T16:13:20.735Z,3.40
2017-07-08T16:15:48.533Z,4.27
2017-07-08T16:18:16.301Z,3.20
2017-07-08T16:20:44.021Z,5.80
2017-07-08T16:23:11.786Z,3.30
2017-07-08T16:25:39.660Z,2.93
2017-07-08T16:28:09.347Z,3.77
2017-07-08T16:30:37.234Z,2.67
2017-07-08T16:33:05.117Z,3.33
2017-07-08T16:35:33.673Z,5.20
2017-07-08T16:38:01.480Z,2.63
2017-07-08T16:40:29.174Z,3.17
2017-07-08T16:42:57.078Z,3.63
2017-07-08T16:45:24.943Z,5.17
2017-07-08T16:47:52.814Z,2.87
2017-07-08T16:50:20.563Z,3.30
2017-07-08T16:52:48.429Z,2.93
2017-07-08T16:55:16.294Z,3.63
2017-07-08T16:57:44.018Z,2.20
2017-07-08T17:00:11.823Z,13.37
2017-07-08T17:02:39.691Z,3.00
2017-07-08T17:05:07.467Z,2.83
2017-07-08T17:07:35.175Z,3.00
2017-07-08T17:10:03.097Z,2.83
2017-07-08T17:12:30.845Z,2.60
2017-07-08T17:14:58.611Z,4.90
2017-07-08T17:17:26.376Z,2.80
2017-07-08T17:19:54.157Z,2.57
2017-07-08T17:22:22.028Z,3.73
2017-07-08T17:24:49.789Z,5.33
2017-07-08T17:27:17.499Z,2.77
2017-07-08T17:29:45.410Z,2.90
2017-07-08T17:32:13.271Z,2.23
2017-07-08T17:34:41.135Z,3.67
2017-07-08T17:37:08.898Z,2.40
2017-07-08T17:39:36.620Z,2.50
2017-07-08T17:42:04.447Z,2.53
2017-07-08T17:44:33.008Z,2.70
2017-07-08T17:47:00.775Z,2.53
2017-07-08T17:49:28.673Z,2.57
2017-07-08T17:51:57.225Z,2.70
2017-07-08T17:54:25.094Z,2.40
2017-07-08T17:56:53.069Z,2.40
2017-07-08T17:59:21.543Z,2.77
2017-07-08T18:01:49.875Z,3.83
2017-07-08T18:04:18.435Z,2.60
2017-07-08T18:06:47.495Z,6.73
2017-07-08T18:09:15.946Z,2.40
2017-07-08T18:11:44.772Z,2.80
2017-07-08T18:14:12.635Z,3.30
2017-07-08T18:16:42.082Z,3.30
2017-07-08T18:19:10.683Z,4.63
2017-07-08T18:21:38.587Z,5.70
2017-07-08T18:24:07.279Z,5.20
2017-07-08T18:26:36.642Z,4.03
2017-07-08T18:29:05.170Z,5.30
2017-07-08T18:31:33.961Z,3.50
2017-07-08T18:34:02.981Z,6.37
2017-07-08T18:36:31.529Z,6.43
2017-07-08T18:38:59.235Z,3.80
2017-07-08T18:41:27.883Z,3.50
2017-07-08T18:43:55.737Z,4.03
2017-07-08T18:46:23.605Z,6.70
2017-07-08T18:48:51.472Z,3.97
2017-07-08T18:51:19.365Z,6.40
2017-07-08T18:53:48.021Z,4.40
2017-07-08T18:56:15.799Z,5.53
2017-07-08T18:58:43.595Z,3.63
2017-07-08T19:01:12.148Z,3.43
2017-07-08T19:03:40.019Z,3.67
2017-07-08T19:06:07.886Z,4.53
2017-07-08T19:08:35.755Z,5.03
2017-07-08T19:11:03.600Z,4.20
2017-07-08T19:13:31.482Z,6.47
2017-07-08T19:15:59.297Z,5.13
2017-07-08T19:18:27.097Z,4.53
2017-07-08T19:20:54.862Z,5.90
2017-07-08T19:23:22.735Z,3.47
2017-07-08T19:25:50.513Z,3.77
2017-07-08T19:28:18.381Z,3.80
2017-07-08T19:30:46.125Z,4.37
2017-07-08T19:33:13.809Z,5.87
2017-07-08T19:35:41.652Z,7.67
2017-07-08T19:38:09.522Z,6.20
2017-07-08T19:40:37.283Z,3.47
2017-07-08T19:43:05.077Z,6.73
2017-07-08T19:45:32.990Z,3.53
2017-07-08T19:48:00.802Z,5.30
2017-07-08T19:50:28.551Z,3.93
2017-07-08T19:52:56.413Z,4.43
2017-07-08T19:55:24.178Z,4.40
2017-07-08T19:57:52.043Z,3.17
2017-07-08T20:00:19.701Z,5.40
2017-07-08T20:02:47.586Z,5.20
2017-07-08T20:05:15.565Z,4.30
2017-07-08T20:07:43.430Z,6.90
2017-07-08T20:10:11.277Z,7.63
2017-07-08T20:12:39.150Z,4.17
2017-07-08T20:15:07.018Z,9.80
2017-07-08T20:17:34.717Z,4.30
2017-07-08T20:20:03.357Z,3.23
2017-07-08T20:22:31.123Z,5.13
2017-07-08T20:24:58.887Z,4.40
2017-07-08T20:27:26.751Z,6.37
2017-07-08T20:29:55.007Z,7.80
2017-07-08T20:32:22.791Z,4.83
2017-07-08T20:34:50.662Z,4.00
2017-07-08T20:37:18.528Z,4.13
2017-07-08T20:39:46.395Z,4.13
2017-07-08T20:42:14.279Z,4.30
2017-07-08T20:44:42.067Z,4.03
2017-07-08T20:47:10.709Z,3.30
2017-07-08T20:49:38.530Z,5.03
2017-07-08T20:52:06.338Z,4.60
2017-07-08T20:54:34.025Z,5.20
2017-07-08T20:57:01.968Z,5.13
2017-07-08T20:59:29.837Z,3.40
2017-07-08T21:01:57.552Z,7.10
2017-07-08T21:04:25.366Z,3.87
2017-07-08T21:06:53.248Z,4.30
2017-07-08T21:09:21.212Z,6.13
2017-07-08T21:11:49.077Z,3.00
2017-07-08T21:14:16.834Z,5.33
2017-07-08T21:16:44.541Z,3.43
2017-07-08T21:19:12.359Z,2.80
2017-07-08T21:21:40.123Z,3.50
2017-07-08T21:24:07.907Z,3.43
2017-07-08T21:26:35.767Z,7.50
2017-07-08T21:29:03.620Z,5.63
2017-07-08T21:31:31.386Z,2.70
2017-07-08T21:33:59.155Z,3.77
2017-07-08T21:36:26.917Z,3.73
2017-07-08T21:38:54.675Z,5.33
2017-07-08T21:41:22.542Z,3.50
2017-07-08T21:43:50.324Z,3.63
2017-07-08T21:46:18.173Z,2.70
2017-07-08T21:48:47.222Z,5.17
2017-07-08T21:51:15.446Z,3.00
2017-07-08T21:53:43.312Z,4.17
2017-07-08T21:56:11.198Z,6.10
2017-07-08T21:58:39.060Z,3.97
2017-07-08T22:01:06.812Z,3.33
2017-07-08T22:03:34.684Z,5.97
2017-07-08T22:06:03.262Z,3.40
2017-07-08T22:08:31.031Z,2.97
2017-07-08T22:10:58.815Z,4.87
2017-07-08T22:13:27.287Z,4.83
2017-07-08T22:15:55.155Z,3.87
2017-07-08T22:18:22.900Z,4.60
2017-07-08T22:20:50.668Z,7.97
2017-07-08T22:23:18.530Z,3.53
2017-07-08T22:25:46.396Z,4.47
2017-07-08T22:28:14.184Z,3.33
2017-07-08T22:30:42.045Z,3.87
2017-07-08T22:33:09.895Z,5.17
2017-07-08T22:35:37.659Z,3.70
2017-07-08T22:38:05.477Z,2.60
2017-07-08T22:40:33.223Z,2.93
2017-07-08T22:43:01.877Z,3.37
2017-07-08T22:45:29.758Z,3.63
2017-07-08T22:47:57.561Z,2.93
2017-07-08T22:50:25.369Z,6.13
2017-07-08T22:52:53.244Z,3.07
2017-07-08T22:55:21.003Z,4.27
2017-07-08T22:57:48.769Z,2.70
2017-07-08T23:00:16.581Z,6.00
2017-07-08T23:02:45.131Z,3.73
2017-07-08T23:05:12.985Z,3.53
2017-07-08T23:07:40.854Z,3.43
2017-07-08T23:10:08.714Z,3.10
2017-07-08T23:12:36.494Z,3.40
2017-07-08T23:15:04.347Z,2.57
2017-07-08T23:17:32.110Z,4.03
2017-07-08T23:19:59.874Z,2.73
2017-07-08T23:22:27.654Z,2.57
2017-07-08T23:24:55.411Z,4.70
2017-07-08T23:27:23.267Z,3.20
2017-07-08T23:29:51.136Z,3.17
2017-07-08T23:32:18.906Z,3.13
2017-07-08T23:34:46.664Z,3.30
2017-07-08T23:37:14.530Z,3.23
2017-07-08T23:39:42.397Z,3.87
2017-07-08T23:42:10.265Z,3.80
2017-07-08T23:44:38.138Z,4.43
2017-07-08T23:47:05.920Z,8.67
2017-07-08T23:49:33.693Z,3.20
2017-07-08T23:52:02.245Z,3.70
2017-07-08T23:54:30.015Z,2.73
2017-07-08T23:56:57.783Z,2.90
2017-07-08T23:59:26.356Z,6.23
